createdAt,value
2023-05-19T00:01:37.633Z,30.66
2023-05-19T00:04:26.809Z,30.51
2023-05-19T00:07:20.717Z,30.64
2023-05-19T00:10:10.853Z,30.76
2023-05-19T00:13:00.167Z,30.59
2023-05-19T00:15:49.281Z,30.46
2023-05-19T00:18:37.978Z,30.91
2023-05-19T00:21:26.654Z,31.03
2023-05-19T00:24:16.741Z,30.50
2023-05-19T00:27:05.822Z,30.58
2023-05-19T00:29:54.551Z,30.76
2023-05-19T00:32:43.197Z,30.71
2023-05-19T00:35:31.978Z,30.52
2023-05-19T00:38:20.694Z,30.65
2023-05-19T00:41:10.970Z,31.21
2023-05-19T00:43:59.776Z,30.70
2023-05-19T00:46:48.447Z,30.68
2023-05-19T00:49:37.575Z,31.04
2023-05-19T00:52:26.671Z,31.31
2023-05-19T00:55:15.414Z,30.87
2023-05-19T00:58:07.231Z,30.84
2023-05-19T01:01:02.834Z,31.03
2023-05-19T01:03:51.790Z,31.23
2023-05-19T01:06:41.943Z,30.97
2023-05-19T01:09:32.249Z,31.13
2023-05-19T01:12:21.074Z,31.29
2023-05-19T01:15:12.526Z,30.79
2023-05-19T01:18:08.498Z,30.96
2023-05-19T01:21:14.035Z,31.21
2023-05-19T01:24:24.213Z,30.99
2023-05-19T01:27:34.041Z,30.98
2023-05-19T01:30:28.714Z,31.44
2023-05-19T01:33:19.032Z,30.88
2023-05-19T01:36:10.276Z,31.22
2023-05-19T01:39:04.035Z,31.24
2023-05-19T01:41:54.027Z,31.11
2023-05-19T01:44:43.509Z,31.13
2023-05-19T01:47:34.303Z,31.13
2023-05-19T01:50:23.474Z,30.90
2023-05-19T01:53:12.588Z,31.27
2023-05-19T01:56:01.538Z,31.08
2023-05-19T01:58:56.660Z,31.02
2023-05-19T02:01:53.295Z,31.16
2023-05-19T02:04:49.943Z,31.20
2023-05-19T02:07:45.844Z,31.38
2023-05-19T02:10:38.851Z,31.23
2023-05-19T02:13:31.566Z,31.19
2023-05-19T02:16:22.199Z,31.34
2023-05-19T02:19:22.126Z,31.71
2023-05-19T02:22:12.265Z,31.54
2023-05-19T02:25:01.244Z,31.77
2023-05-19T02:27:49.899Z,31.46
2023-05-19T02:30:38.628Z,31.49
2023-05-19T02:33:27.578Z,31.82
2023-05-19T02:36:17.442Z,31.80
2023-05-19T02:39:07.527Z,31.56
2023-05-19T02:41:56.467Z,31.74
2023-05-19T02:44:45.109Z,31.53
2023-05-19T02:47:36.138Z,31.91
2023-05-19T02:50:25.634Z,31.30
2023-05-19T02:53:14.304Z,31.69
2023-05-19T02:56:04.524Z,31.73
2023-05-19T02:58:53.236Z,31.92
2023-05-19T03:01:41.927Z,32.02
2023-05-19T03:04:31.154Z,31.58
2023-05-19T03:07:25.278Z,31.61
2023-05-19T03:10:14.127Z,31.90
2023-05-19T03:13:04.162Z,31.86
2023-05-19T03:15:52.854Z,31.56
2023-05-19T03:18:42.315Z,32.04
2023-05-19T03:21:32.072Z,31.65
2023-05-19T03:24:20.962Z,31.62
2023-05-19T03:27:09.616Z,31.78
2023-05-19T03:30:00.008Z,31.46
2023-05-19T03:32:48.735Z,31.83
2023-05-19T03:35:37.464Z,31.56
2023-05-19T03:38:26.276Z,31.68
2023-05-19T03:41:14.974Z,31.77
2023-05-19T03:44:03.704Z,31.88
2023-05-19T03:46:53.781Z,32.03
2023-05-19T03:49:42.433Z,31.93
2023-05-19T03:52:31.119Z,31.61
2023-05-19T03:55:21.434Z,31.48
2023-05-19T03:58:14.565Z,31.72
2023-05-19T04:01:03.485Z,31.97
2023-05-19T04:03:53.530Z,31.61
2023-05-19T04:06:42.269Z,32.01
2023-05-19T04:09:32.485Z,31.75
2023-05-19T04:12:21.206Z,31.59
2023-05-19T04:15:12.012Z,31.57
2023-05-19T04:18:00.772Z,31.84
2023-05-19T04:20:51.170Z,31.56
2023-05-19T04:23:39.817Z,31.87
2023-05-19T04:26:34.041Z,32.07
2023-05-19T04:29:24.264Z,32.20
2023-05-19T04:32:17.648Z,32.09
2023-05-19T04:35:07.197Z,31.90
2023-05-19T04:37:57.225Z,31.73
2023-05-19T04:40:46.108Z,32.11
2023-05-19T04:43:34.723Z,32.10
2023-05-19T04:46:24.539Z,32.21
2023-05-19T04:49:14.501Z,32.08
2023-05-19T04:52:03.385Z,31.99
2023-05-19T04:54:53.445Z,32.03
2023-05-19T04:57:42.234Z,31.72
2023-05-19T05:00:31.255Z,32.23
2023-05-19T05:03:22.969Z,31.86
2023-05-19T05:06:12.141Z,32.41
2023-05-19T05:09:01.047Z,31.75
2023-05-19T05:11:52.967Z,31.98
2023-05-19T05:14:42.168Z,31.88
2023-05-19T05:17:32.649Z,31.95
2023-05-19T05:20:22.522Z,32.04
2023-05-19T05:23:14.471Z,31.77
2023-05-19T05:26:11.486Z,31.87
2023-05-19T05:29:01.704Z,32.11
2023-05-19T05:31:50.386Z,32.15
2023-05-19T05:34:40.985Z,32.30
2023-05-19T05:37:29.683Z,31.83
2023-05-19T05:40:18.520Z,32.04
2023-05-19T05:43:07.176Z,31.90
2023-05-19T05:45:57.271Z,32.29
2023-05-19T05:48:46.508Z,32.14
2023-05-19T05:51:35.826Z,32.39
2023-05-19T05:54:26.415Z,32.01
2023-05-19T05:57:15.541Z,32.13
2023-05-19T06:00:07.253Z,31.92
2023-05-19T06:02:59.212Z,31.86
2023-05-19T06:05:48.264Z,31.75
2023-05-19T06:08:36.859Z,31.72
2023-05-19T06:11:26.153Z,32.01
2023-05-19T06:14:14.878Z,32.37
2023-05-19T06:17:03.471Z,31.85
2023-05-19T06:19:53.526Z,32.70
2023-05-19T06:22:42.315Z,32.29
2023-05-19T06:25:31.325Z,32.28
2023-05-19T06:28:20.173Z,32.31
2023-05-19T06:31:09.097Z,32.16
2023-05-19T06:33:57.883Z,32.87
2023-05-19T06:36:48.118Z,33.01
2023-05-19T06:39:36.820Z,32.77
2023-05-19T06:42:25.593Z,32.52
2023-05-19T06:45:14.681Z,33.13
2023-05-19T06:48:03.377Z,32.80
2023-05-19T06:50:52.099Z,32.27
2023-05-19T06:53:42.239Z,33.19
2023-05-19T06:56:30.936Z,33.09
2023-05-19T06:59:21.840Z,32.83
2023-05-19T07:02:10.766Z,32.82
2023-05-19T07:04:59.574Z,32.79
2023-05-19T07:07:48.212Z,32.58
2023-05-19T07:10:38.485Z,32.88
2023-05-19T07:13:27.731Z,32.64
2023-05-19T07:16:16.556Z,32.67
2023-05-19T07:19:05.477Z,32.62
2023-05-19T07:21:54.901Z,32.25
2023-05-19T07:24:43.543Z,32.32
2023-05-19T07:27:33.724Z,32.26
2023-05-19T07:30:22.750Z,32.33
2023-05-19T07:33:11.633Z,32.55
2023-05-19T07:36:00.437Z,32.17
2023-05-19T07:38:49.103Z,32.30
2023-05-19T07:41:37.805Z,32.67
2023-05-19T07:44:28.192Z,32.63
2023-05-19T07:47:16.936Z,32.57
2023-05-19T07:50:06.113Z,32.38
2023-05-19T07:52:54.961Z,32.74
2023-05-19T07:55:43.664Z,32.30
2023-05-19T07:58:32.538Z,31.98
2023-05-19T08:01:22.660Z,31.76
2023-05-19T08:04:13.179Z,31.84
2023-05-19T08:07:02.095Z,31.78
2023-05-19T08:09:50.822Z,32.17
2023-05-19T08:12:39.502Z,32.22
2023-05-19T08:15:28.268Z,31.93
2023-05-19T08:18:18.388Z,31.67
2023-05-19T08:21:07.440Z,31.85
2023-05-19T08:23:57.042Z,31.87
2023-05-19T08:26:46.246Z,31.66
2023-05-19T08:29:34.950Z,32.15
2023-05-19T08:32:23.642Z,32.36
2023-05-19T08:35:13.771Z,31.96
2023-05-19T08:38:02.511Z,31.81
2023-05-19T08:40:51.249Z,32.17
2023-05-19T08:43:40.438Z,32.12
2023-05-19T08:46:31.532Z,32.62
2023-05-19T08:49:25.733Z,32.47
2023-05-19T08:52:26.880Z,32.68
2023-05-19T08:55:27.768Z,32.30
2023-05-19T08:58:20.327Z,32.62
2023-05-19T09:01:10.035Z,32.48
2023-05-19T09:03:59.468Z,32.95
2023-05-19T09:06:48.329Z,32.94
2023-05-19T09:09:40.793Z,33.14
2023-05-19T09:12:29.575Z,32.68
2023-05-19T09:15:21.935Z,32.78
2023-05-19T09:18:12.352Z,32.59
2023-05-19T09:21:02.998Z,32.86
2023-05-19T09:23:52.804Z,32.69
2023-05-19T09:26:45.362Z,32.92
2023-05-19T09:29:34.364Z,33.16
2023-05-19T09:32:27.574Z,33.03
2023-05-19T09:35:17.296Z,32.91
2023-05-19T09:38:06.373Z,33.22
2023-05-19T09:40:55.366Z,32.59
2023-05-19T09:43:46.232Z,32.52
2023-05-19T09:46:35.942Z,33.02
2023-05-19T09:49:29.495Z,33.25
2023-05-19T09:52:18.249Z,33.21
2023-05-19T09:55:11.166Z,32.78
2023-05-19T09:58:03.759Z,32.45
2023-05-19T10:00:55.513Z,32.31
2023-05-19T10:03:44.345Z,32.70
2023-05-19T10:06:33.537Z,32.55
2023-05-19T10:09:25.165Z,32.75
2023-05-19T10:12:14.756Z,32.31
2023-05-19T10:15:04.229Z,32.42
2023-05-19T10:17:54.729Z,32.58
2023-05-19T10:20:44.036Z,32.51
2023-05-19T10:23:32.710Z,32.75
2023-05-19T10:26:21.793Z,32.60
2023-05-19T10:29:11.924Z,33.17
2023-05-19T10:32:06.605Z,32.67
2023-05-19T10:35:21.977Z,32.81
2023-05-19T10:38:22.995Z,32.92
2023-05-19T10:41:15.522Z,33.22
2023-05-19T10:44:11.575Z,32.99
2023-05-19T10:47:00.360Z,32.95
2023-05-19T10:49:49.209Z,33.01
2023-05-19T10:52:40.960Z,32.69
2023-05-19T10:55:52.045Z,32.57
2023-05-19T10:58:52.114Z,32.80
2023-05-19T11:01:41.625Z,32.87
2023-05-19T11:04:41.814Z,33.08
2023-05-19T11:07:30.770Z,32.84
2023-05-19T11:10:25.201Z,33.08
2023-05-19T11:13:22.978Z,32.85
2023-05-19T11:16:12.459Z,32.74
2023-05-19T11:19:01.980Z,32.80
2023-05-19T11:21:52.448Z,32.74
2023-05-19T11:24:46.198Z,32.82
2023-05-19T11:27:40.194Z,32.87
2023-05-19T11:30:28.908Z,32.74
2023-05-19T11:33:19.851Z,32.97
2023-05-19T11:36:10.145Z,32.91
2023-05-19T11:39:00.497Z,33.17
2023-05-19T11:41:49.119Z,33.24
2023-05-19T11:44:41.129Z,33.21
2023-05-19T11:47:32.048Z,33.36
2023-05-19T11:50:25.944Z,33.48
2023-05-19T11:53:17.389Z,33.66
2023-05-19T11:56:07.865Z,33.70
2023-05-19T11:58:56.635Z,33.38
2023-05-19T12:01:46.883Z,33.73
2023-05-19T12:04:35.622Z,33.52
2023-05-19T12:07:26.155Z,33.77
2023-05-19T12:10:14.790Z,33.50
2023-05-19T12:13:08.943Z,33.68
2023-05-19T12:16:02.181Z,33.80
2023-05-19T12:18:52.307Z,33.37
2023-05-19T12:21:41.367Z,33.14
2023-05-19T12:24:32.468Z,33.17
2023-05-19T12:27:22.351Z,33.53
2023-05-19T12:30:12.867Z,33.35
2023-05-19T12:33:03.247Z,33.17
2023-05-19T12:35:53.638Z,33.26
2023-05-19T12:38:42.375Z,33.26
2023-05-19T12:41:31.893Z,33.09
2023-05-19T12:44:20.805Z,33.28
2023-05-19T12:47:09.535Z,33.51
2023-05-19T12:50:02.189Z,33.48
2023-05-19T12:52:52.264Z,33.15
2023-05-19T12:55:43.134Z,33.23
2023-05-19T12:58:35.310Z,33.53
2023-05-19T13:01:25.187Z,33.42
2023-05-19T13:04:14.060Z,33.42
2023-05-19T13:07:02.825Z,33.40
2023-05-19T13:09:52.916Z,33.56
2023-05-19T13:12:41.481Z,33.33
2023-05-19T13:15:34.245Z,33.04
2023-05-19T13:18:23.068Z,33.08
2023-05-19T13:21:11.730Z,33.26
2023-05-19T13:24:00.462Z,33.51
2023-05-19T13:26:50.520Z,33.59
2023-05-19T13:29:39.162Z,33.79
2023-05-19T13:32:27.922Z,33.32
2023-05-19T13:35:16.898Z,33.96
2023-05-19T13:38:06.157Z,33.43
2023-05-19T13:40:55.080Z,33.71
2023-05-19T13:43:45.187Z,33.84
2023-05-19T13:46:44.572Z,33.92
2023-05-19T13:49:34.547Z,34.25
2023-05-19T13:52:23.864Z,34.18
2023-05-19T13:55:12.520Z,34.51
2023-05-19T13:58:01.231Z,33.99
2023-05-19T14:00:54.639Z,34.29
2023-05-19T14:03:44.731Z,34.18
2023-05-19T14:06:33.462Z,34.03
2023-05-19T14:09:22.243Z,34.38
2023-05-19T14:12:12.192Z,34.60
2023-05-19T14:15:02.625Z,34.38
2023-05-19T14:17:53.228Z,34.42
2023-05-19T14:20:41.935Z,34.53
2023-05-19T14:23:30.980Z,34.11
2023-05-19T14:26:19.693Z,34.29
2023-05-19T14:29:08.613Z,34.44
2023-05-19T14:31:57.380Z,34.43
2023-05-19T14:34:47.649Z,34.57
2023-05-19T14:37:36.390Z,34.78
2023-05-19T14:40:25.014Z,34.77
2023-05-19T14:43:13.744Z,34.04
2023-05-19T14:46:02.551Z,34.39
2023-05-19T14:48:51.160Z,34.74
2023-05-19T14:51:41.112Z,34.49
2023-05-19T14:54:29.814Z,34.64
2023-05-19T14:57:18.454Z,34.59
2023-05-19T15:00:09.223Z,34.56
2023-05-19T15:03:00.099Z,34.48
2023-05-19T15:05:49.375Z,35.02
2023-05-19T15:08:40.769Z,34.84
2023-05-19T15:11:29.444Z,34.78
2023-05-19T15:14:18.111Z,35.60
2023-05-19T15:17:07.199Z,36.40
2023-05-19T15:19:55.866Z,36.42
2023-05-19T15:22:44.510Z,36.98
2023-05-19T15:25:34.557Z,36.76
2023-05-19T15:28:23.189Z,37.79
2023-05-19T15:31:11.916Z,37.41
2023-05-19T15:34:00.676Z,36.63
2023-05-19T15:36:49.340Z,38.76
2023-05-19T15:39:38.085Z,37.12
2023-05-19T15:42:28.104Z,38.00
2023-05-19T15:45:16.697Z,38.26
2023-05-19T15:48:05.836Z,38.75
2023-05-19T15:50:54.516Z,38.01
2023-05-19T15:53:43.205Z,38.75
2023-05-19T15:56:31.920Z,39.46
2023-05-19T15:59:21.972Z,38.94
2023-05-19T16:02:13.232Z,37.53
2023-05-19T16:05:02.020Z,37.93
2023-05-19T16:07:50.878Z,38.64
2023-05-19T16:10:39.593Z,37.96
2023-05-19T16:13:28.340Z,38.38
2023-05-19T16:16:18.852Z,38.08
2023-05-19T16:19:07.720Z,38.41
2023-05-19T16:21:56.476Z,38.18
2023-05-19T16:24:45.220Z,39.33
2023-05-19T16:27:33.839Z,38.97
2023-05-19T16:30:23.125Z,39.10
2023-05-19T16:33:13.300Z,38.50
2023-05-19T16:36:02.153Z,38.49
2023-05-19T16:38:50.911Z,38.32
2023-05-19T16:41:40.950Z,37.73
2023-05-19T16:44:29.618Z,37.95
2023-05-19T16:47:18.337Z,38.18
2023-05-19T16:50:09.523Z,38.22
2023-05-19T16:52:58.248Z,39.21
2023-05-19T16:55:46.969Z,38.57
2023-05-19T16:58:36.011Z,38.38
2023-05-19T17:01:24.886Z,38.27
2023-05-19T17:04:13.603Z,38.76
2023-05-19T17:07:03.628Z,38.15
2023-05-19T17:09:54.469Z,38.34
2023-05-19T17:12:44.524Z,37.20
2023-05-19T17:15:35.075Z,37.09
2023-05-19T17:18:23.769Z,36.95
2023-05-19T17:21:13.461Z,36.63
2023-05-19T17:24:03.541Z,36.78
2023-05-19T17:26:52.417Z,36.58
2023-05-19T17:29:41.179Z,36.75
2023-05-19T17:32:35.718Z,36.80
2023-05-19T17:35:25.550Z,36.50
2023-05-19T17:38:15.053Z,36.57
2023-05-19T17:41:09.777Z,37.67
2023-05-19T17:43:58.750Z,37.43
2023-05-19T17:46:47.525Z,38.03
2023-05-19T17:49:36.174Z,38.64
2023-05-19T17:52:25.756Z,38.66
2023-05-19T17:55:15.500Z,38.19
2023-05-19T17:58:06.065Z,38.02
2023-05-19T18:00:55.619Z,37.38
2023-05-19T18:03:49.439Z,37.57
2023-05-19T18:06:39.126Z,37.53
2023-05-19T18:09:29.612Z,37.34
2023-05-19T18:12:18.301Z,37.53
2023-05-19T18:15:13.197Z,37.81
2023-05-19T18:18:03.015Z,37.08
2023-05-19T18:20:51.944Z,37.58
2023-05-19T18:23:40.563Z,37.32
2023-05-19T18:26:29.244Z,37.88
2023-05-19T18:29:17.931Z,37.89
2023-05-19T18:32:14.486Z,38.79
2023-05-19T18:35:03.574Z,38.38
2023-05-19T18:37:52.247Z,38.38
2023-05-19T18:40:44.573Z,38.49
2023-05-19T18:43:34.273Z,38.77
2023-05-19T18:46:23.168Z,38.70
2023-05-19T18:49:13.426Z,37.84
2023-05-19T18:52:02.123Z,37.66
2023-05-19T18:54:50.841Z,37.37
2023-05-19T18:57:39.445Z,37.57
2023-05-19T19:00:28.620Z,37.56
2023-05-19T19:03:17.539Z,37.80
2023-05-19T19:06:07.817Z,37.00
2023-05-19T19:08:56.462Z,37.67
2023-05-19T19:11:45.264Z,37.22
2023-05-19T19:14:34.468Z,37.76
2023-05-19T19:17:23.215Z,37.67
2023-05-19T19:20:12.820Z,37.33
2023-05-19T19:23:05.790Z,37.55
2023-05-19T19:25:56.437Z,37.23
2023-05-19T19:28:45.408Z,37.49
2023-05-19T19:31:34.181Z,37.59
2023-05-19T19:34:22.904Z,37.39
2023-05-19T19:37:11.540Z,37.32
2023-05-19T19:40:01.879Z,37.66
2023-05-19T19:42:50.581Z,37.92
2023-05-19T19:45:39.881Z,37.30
2023-05-19T19:48:30.764Z,36.09
2023-05-19T19:51:19.432Z,36.79
2023-05-19T19:54:10.220Z,37.11
2023-05-19T19:57:00.320Z,37.21
2023-05-19T19:59:55.244Z,36.96
2023-05-19T20:03:02.937Z,37.36
2023-05-19T20:05:52.960Z,37.49
2023-05-19T20:08:41.713Z,37.18
2023-05-19T20:11:30.503Z,37.10
2023-05-19T20:14:20.669Z,37.63
2023-05-19T20:17:09.311Z,36.98
2023-05-19T20:20:04.650Z,36.59
2023-05-19T20:22:53.320Z,36.91
2023-05-19T20:25:58.514Z,37.63
2023-05-19T20:28:51.634Z,37.06
2023-05-19T20:31:41.662Z,36.80
2023-05-19T20:34:30.878Z,36.52
2023-05-19T20:37:21.532Z,36.60
2023-05-19T20:40:11.755Z,36.54
2023-05-19T20:43:00.826Z,37.21
2023-05-19T20:45:49.691Z,36.87
2023-05-19T20:48:39.719Z,36.72
2023-05-19T20:51:28.373Z,36.55
2023-05-19T20:54:19.574Z,36.53
2023-05-19T20:57:09.364Z,36.11
2023-05-19T20:59:58.022Z,36.37
2023-05-19T21:02:46.788Z,36.48
2023-05-19T21:05:37.939Z,36.66
2023-05-19T21:08:27.158Z,36.34
2023-05-19T21:11:15.763Z,35.97
2023-05-19T21:14:05.011Z,36.96
2023-05-19T21:16:54.826Z,36.71
2023-05-19T21:19:43.600Z,36.90
2023-05-19T21:22:35.787Z,36.81
2023-05-19T21:25:24.506Z,36.77
2023-05-19T21:28:13.110Z,36.66
2023-05-19T21:31:01.830Z,36.59
2023-05-19T21:33:50.528Z,36.52
2023-05-19T21:36:39.166Z,36.79
2023-05-19T21:39:29.194Z,36.87
2023-05-19T21:42:17.986Z,36.54
2023-05-19T21:45:07.697Z,36.87
2023-05-19T21:47:56.330Z,36.60
2023-05-19T21:50:45.036Z,36.44
2023-05-19T21:53:33.771Z,36.31
2023-05-19T21:56:24.028Z,36.26
2023-05-19T21:59:12.754Z,36.44
2023-05-19T22:02:03.780Z,36.91
2023-05-19T22:04:52.527Z,36.37
2023-05-19T22:07:41.230Z,36.42
2023-05-19T22:10:29.880Z,36.48
2023-05-19T22:13:20.090Z,36.80
2023-05-19T22:16:09.358Z,36.38
2023-05-19T22:18:58.282Z,36.51
2023-05-19T22:21:50.376Z,36.39
2023-05-19T22:24:42.671Z,36.18
2023-05-19T22:27:31.453Z,36.38
2023-05-19T22:30:21.700Z,36.79
2023-05-19T22:33:11.493Z,36.93
2023-05-19T22:36:00.215Z,37.19
2023-05-19T22:38:48.849Z,37.14
2023-05-19T22:41:37.488Z,37.79
2023-05-19T22:44:26.379Z,37.52
2023-05-19T22:47:16.409Z,37.79
2023-05-19T22:50:05.664Z,37.22
2023-05-19T22:52:54.277Z,36.44
2023-05-19T22:55:43.089Z,37.04
2023-05-19T22:58:31.741Z,37.38
2023-05-19T23:01:20.444Z,37.70
2023-05-19T23:04:11.469Z,37.44
2023-05-19T23:07:00.325Z,37.60
2023-05-19T23:09:50.025Z,37.51
2023-05-19T23:12:40.071Z,38.13
2023-05-19T23:15:28.767Z,38.04
2023-05-19T23:18:17.446Z,38.30
2023-05-19T23:21:07.722Z,37.76
2023-05-19T23:23:56.395Z,37.92
2023-05-19T23:26:45.488Z,37.68
2023-05-19T23:29:34.232Z,38.10
2023-05-19T23:32:22.905Z,38.45
2023-05-19T23:35:13.288Z,38.19
2023-05-19T23:38:03.376Z,37.91
2023-05-19T23:40:52.191Z,38.37
2023-05-19T23:43:40.920Z,38.31
2023-05-19T23:46:29.647Z,38.22
2023-05-19T23:49:19.753Z,38.37
2023-05-19T23:52:08.510Z,38.76
2023-05-19T23:54:58.603Z,38.09
2023-05-19T23:57:47.337Z,38.49
